createdAt,value
2022-08-30T00:00:07.449Z,19.59
2022-08-30T00:02:36.983Z,19.55
2022-08-30T00:05:06.310Z,19.35
2022-08-30T00:07:36.059Z,19.42
2022-08-30T00:10:06.226Z,19.35
2022-08-30T00:12:36.066Z,19.36
2022-08-30T00:15:07.286Z,19.36
2022-08-30T00:17:37.793Z,19.26
2022-08-30T00:20:12.178Z,19.16
2022-08-30T00:22:41.616Z,19.05
2022-08-30T00:25:11.012Z,18.94
2022-08-30T00:27:40.656Z,18.83
2022-08-30T00:30:12.822Z,18.78
2022-08-30T00:32:42.005Z,18.80
2022-08-30T00:35:15.211Z,18.98
2022-08-30T00:37:44.633Z,18.94
2022-08-30T00:40:16.135Z,18.75
2022-08-30T00:42:50.653Z,18.75
2022-08-30T00:45:31.906Z,19.06
2022-08-30T00:48:01.863Z,19.11
2022-08-30T00:50:45.353Z,19.00
2022-08-30T00:53:22.546Z,19.01
2022-08-30T00:55:53.159Z,18.71
2022-08-30T00:58:36.928Z,18.75
2022-08-30T01:01:08.575Z,18.96
2022-08-30T01:03:39.389Z,18.87
2022-08-30T01:06:08.989Z,18.77
2022-08-30T01:08:39.200Z,18.91
2022-08-30T01:11:08.928Z,18.64
2022-08-30T01:13:37.574Z,18.53
2022-08-30T01:16:06.773Z,18.51
2022-08-30T01:18:39.535Z,18.70
2022-08-30T01:21:57.637Z,18.76
2022-08-30T01:24:26.941Z,18.60
2022-08-30T01:26:56.004Z,18.86
2022-08-30T01:29:27.133Z,18.57
2022-08-30T01:31:55.661Z,18.76
2022-08-30T01:34:25.751Z,18.74
2022-08-30T01:36:54.427Z,18.64
2022-08-30T01:39:23.275Z,18.81
2022-08-30T01:41:52.991Z,18.84
2022-08-30T01:44:21.615Z,18.79
2022-08-30T01:46:50.265Z,18.68
2022-08-30T01:49:27.572Z,18.84
2022-08-30T01:52:00.702Z,18.86
2022-08-30T01:54:38.333Z,18.41
2022-08-30T01:57:11.942Z,18.13
2022-08-30T01:59:47.705Z,18.09
2022-08-30T02:02:26.101Z,18.41
2022-08-30T02:04:56.717Z,18.23
2022-08-30T02:07:27.578Z,17.98
2022-08-30T02:09:56.968Z,18.08
2022-08-30T02:12:26.126Z,18.00
2022-08-30T02:14:54.776Z,17.86
2022-08-30T02:17:23.434Z,17.91
2022-08-30T02:19:52.966Z,18.24
2022-08-30T02:22:21.517Z,18.28
2022-08-30T02:24:50.241Z,18.06
2022-08-30T02:27:19.047Z,18.07
2022-08-30T02:29:47.805Z,18.06
2022-08-30T02:32:16.378Z,18.31
2022-08-30T02:34:47.393Z,18.25
2022-08-30T02:37:16.149Z,18.39
2022-08-30T02:39:45.592Z,18.10
2022-08-30T02:42:14.231Z,17.91
2022-08-30T02:44:42.834Z,18.06
2022-08-30T02:47:12.510Z,18.23
2022-08-30T02:49:41.162Z,18.36
2022-08-30T02:52:10.599Z,18.35
2022-08-30T02:54:39.223Z,18.32
2022-08-30T02:57:19.996Z,18.47
2022-08-30T02:59:49.869Z,18.41
2022-08-30T03:02:18.787Z,18.34
2022-08-30T03:04:49.163Z,18.17
2022-08-30T03:07:18.493Z,18.04
2022-08-30T03:09:47.148Z,17.96
2022-08-30T03:12:16.248Z,18.07
2022-08-30T03:14:44.996Z,17.98
2022-08-30T03:17:15.700Z,17.94
2022-08-30T03:19:46.308Z,17.89
2022-08-30T03:22:15.253Z,17.93
2022-08-30T03:24:45.989Z,17.99
2022-08-30T03:27:14.901Z,18.08
2022-08-30T03:29:43.614Z,17.97
2022-08-30T03:32:12.321Z,18.13
2022-08-30T03:34:41.337Z,17.99
2022-08-30T03:37:10.121Z,18.05
2022-08-30T03:39:39.024Z,17.90
2022-08-30T03:42:07.929Z,17.93
2022-08-30T03:44:38.079Z,17.81
2022-08-30T03:47:08.596Z,17.76
2022-08-30T03:49:37.497Z,17.64
2022-08-30T03:52:06.484Z,17.71
2022-08-30T03:54:35.274Z,17.62
2022-08-30T03:57:06.546Z,17.70
2022-08-30T03:59:35.694Z,17.62
2022-08-30T04:02:05.373Z,17.49
2022-08-30T04:04:34.135Z,17.43
2022-08-30T04:07:02.879Z,17.60
2022-08-30T04:09:31.704Z,17.80
2022-08-30T04:12:00.404Z,17.81
2022-08-30T04:14:29.874Z,17.62
2022-08-30T04:16:58.579Z,17.51
2022-08-30T04:19:27.231Z,17.63
2022-08-30T04:21:57.486Z,17.61
2022-08-30T04:24:26.170Z,17.64
2022-08-30T04:26:54.791Z,17.63
2022-08-30T04:29:24.226Z,17.56
2022-08-30T04:31:52.994Z,17.62
2022-08-30T04:34:24.578Z,17.52
2022-08-30T04:36:53.360Z,17.72
2022-08-30T04:39:22.232Z,17.66
2022-08-30T04:41:50.906Z,17.66
2022-08-30T04:44:19.803Z,17.74
2022-08-30T04:46:49.174Z,17.72
2022-08-30T04:49:17.945Z,17.88
2022-08-30T04:51:47.475Z,17.83
2022-08-30T04:54:16.374Z,17.84
2022-08-30T04:56:45.076Z,18.04
2022-08-30T04:59:14.205Z,17.94
2022-08-30T05:01:45.490Z,18.00
2022-08-30T05:04:28.134Z,18.21
2022-08-30T05:06:56.926Z,18.54
2022-08-30T05:09:25.518Z,18.60
2022-08-30T05:11:54.132Z,18.53
2022-08-30T05:14:22.746Z,18.79
2022-08-30T05:16:51.463Z,18.66
2022-08-30T05:19:20.111Z,18.96
2022-08-30T05:21:48.703Z,19.03
2022-08-30T05:24:17.427Z,19.20
2022-08-30T05:26:46.073Z,19.57
2022-08-30T05:29:15.552Z,20.06
2022-08-30T05:31:45.317Z,20.99
2022-08-30T05:34:17.151Z,20.39
2022-08-30T05:36:58.263Z,20.22
2022-08-30T05:39:27.004Z,20.70
2022-08-30T05:42:00.096Z,20.87
2022-08-30T05:44:28.713Z,20.70
2022-08-30T05:46:57.364Z,21.44
2022-08-30T05:49:25.987Z,21.79
2022-08-30T05:51:54.601Z,21.42
2022-08-30T05:54:23.200Z,21.21
2022-08-30T05:56:51.847Z,21.21
2022-08-30T05:59:20.493Z,21.61
2022-08-30T06:01:49.188Z,21.69
2022-08-30T06:04:18.630Z,22.97
2022-08-30T06:06:47.216Z,23.51
2022-08-30T06:09:16.426Z,23.68
2022-08-30T06:11:46.471Z,23.31
2022-08-30T06:14:15.950Z,23.58
2022-08-30T06:16:47.642Z,24.49
2022-08-30T06:19:17.144Z,24.44
2022-08-30T06:21:50.795Z,23.13
2022-08-30T06:24:20.785Z,22.48
2022-08-30T06:26:56.629Z,22.79
2022-08-30T06:29:26.090Z,23.01
2022-08-30T06:31:55.209Z,22.90
2022-08-30T06:34:24.104Z,22.85
2022-08-30T06:36:52.659Z,22.65
2022-08-30T06:39:22.386Z,22.87
2022-08-30T06:41:51.036Z,22.93
2022-08-30T06:44:19.676Z,23.04
2022-08-30T06:46:48.417Z,23.04
2022-08-30T06:49:17.397Z,24.07
2022-08-30T06:51:45.942Z,25.00
2022-08-30T06:54:14.583Z,24.36
2022-08-30T06:56:57.695Z,23.95
2022-08-30T06:59:27.995Z,23.84
2022-08-30T07:01:57.791Z,23.20
2022-08-30T07:04:27.320Z,23.06
2022-08-30T07:06:55.755Z,23.73
2022-08-30T07:09:25.328Z,24.34
2022-08-30T07:11:54.578Z,24.32
2022-08-30T07:14:24.103Z,24.37
2022-08-30T07:16:52.704Z,24.73
2022-08-30T07:19:22.449Z,24.79
2022-08-30T07:21:51.220Z,28.28
2022-08-30T07:24:20.686Z,31.90
2022-08-30T07:26:52.319Z,31.54
2022-08-30T07:29:21.559Z,28.84
2022-08-30T07:31:50.330Z,25.72
2022-08-30T07:34:22.297Z,24.86
2022-08-30T07:36:52.033Z,24.18
2022-08-30T07:39:21.221Z,24.77
2022-08-30T07:41:50.945Z,24.62
2022-08-30T07:44:19.967Z,24.22
2022-08-30T07:46:52.173Z,24.53
2022-08-30T07:49:20.860Z,24.72
2022-08-30T07:51:49.401Z,24.64
2022-08-30T07:54:18.059Z,24.85
2022-08-30T07:56:46.736Z,24.46
2022-08-30T07:59:15.924Z,25.50
2022-08-30T08:01:44.640Z,25.31
2022-08-30T08:04:13.206Z,24.81
2022-08-30T08:06:42.722Z,24.86
2022-08-30T08:09:12.244Z,24.67
2022-08-30T08:11:41.929Z,24.83
2022-08-30T08:14:11.596Z,24.95
2022-08-30T08:16:42.485Z,24.88
2022-08-30T08:19:12.437Z,25.03
2022-08-30T08:21:41.362Z,25.48
2022-08-30T08:24:10.070Z,25.86
2022-08-30T08:26:40.910Z,26.03
2022-08-30T08:29:13.946Z,27.28
2022-08-30T08:31:43.353Z,27.49
2022-08-30T08:34:13.451Z,27.68
2022-08-30T08:36:42.574Z,27.32
2022-08-30T08:39:11.209Z,27.36
2022-08-30T08:42:06.891Z,28.00
2022-08-30T08:45:12.230Z,29.03
2022-08-30T08:48:52.002Z,27.86
2022-08-30T08:51:47.685Z,27.92
2022-08-30T08:54:31.303Z,27.08
2022-08-30T08:57:01.078Z,27.56
2022-08-30T08:59:29.883Z,27.09
2022-08-30T09:02:07.165Z,27.40
2022-08-30T09:04:40.192Z,27.73
2022-08-30T09:07:26.711Z,27.29
2022-08-30T09:09:55.649Z,27.26
2022-08-30T09:12:24.242Z,26.92
2022-08-30T09:15:16.279Z,27.38
2022-08-30T09:17:57.018Z,27.40
2022-08-30T09:20:32.483Z,26.83
2022-08-30T09:23:27.773Z,27.30
2022-08-30T09:26:09.665Z,26.70
2022-08-30T09:28:53.809Z,27.53
2022-08-30T09:31:31.139Z,27.68
2022-08-30T09:34:08.633Z,27.85
2022-08-30T09:36:53.718Z,27.29
2022-08-30T09:39:37.833Z,27.96
2022-08-30T09:42:24.927Z,27.44
2022-08-30T09:45:10.641Z,27.61
2022-08-30T09:47:43.980Z,27.75
2022-08-30T09:50:24.094Z,27.59
2022-08-30T09:53:23.737Z,27.43
2022-08-30T09:56:10.416Z,27.19
2022-08-30T09:59:27.104Z,27.83
2022-08-30T10:02:48.330Z,28.05
2022-08-30T10:05:53.509Z,27.86
2022-08-30T10:08:52.317Z,28.02
2022-08-30T10:12:05.203Z,27.96
2022-08-30T10:14:46.241Z,27.82
2022-08-30T10:17:44.905Z,27.99
2022-08-30T10:20:22.283Z,27.63
2022-08-30T10:23:54.153Z,28.26
2022-08-30T10:26:42.974Z,27.84
2022-08-30T10:29:31.275Z,28.45
2022-08-30T10:32:11.570Z,29.05
2022-08-30T10:35:04.171Z,28.72
2022-08-30T10:38:14.807Z,28.54
2022-08-30T10:41:09.069Z,28.79
2022-08-30T10:43:57.807Z,28.64
2022-08-30T10:47:23.453Z,29.67
2022-08-30T10:50:19.633Z,29.61
2022-08-30T10:52:59.366Z,29.52
2022-08-30T10:55:50.460Z,28.31
2022-08-30T10:58:20.103Z,28.46
2022-08-30T11:01:35.727Z,28.31
2022-08-30T11:05:01.332Z,28.05
2022-08-30T11:08:52.189Z,28.57
2022-08-30T11:12:17.200Z,28.40
2022-08-30T11:14:47.727Z,28.17
2022-08-30T11:17:44.613Z,29.44
2022-08-30T11:20:50.313Z,29.19
2022-08-30T11:23:32.707Z,28.47
2022-08-30T11:26:21.277Z,28.60
2022-08-30T11:28:49.659Z,29.00
2022-08-30T11:31:24.181Z,29.48
2022-08-30T11:33:57.799Z,29.57
2022-08-30T11:36:37.812Z,29.81
2022-08-30T11:39:13.816Z,29.84
2022-08-30T11:41:48.610Z,29.47
2022-08-30T11:44:22.849Z,30.24
2022-08-30T11:46:56.174Z,29.46
2022-08-30T11:49:46.465Z,29.32
2022-08-30T11:52:43.239Z,29.90
2022-08-30T11:55:55.100Z,29.40
2022-08-30T11:58:52.329Z,28.91
2022-08-30T12:01:50.927Z,29.50
2022-08-30T12:04:19.689Z,30.44
2022-08-30T12:07:08.771Z,30.04
2022-08-30T12:09:37.792Z,30.06
2022-08-30T12:12:47.772Z,30.27
2022-08-30T12:16:03.435Z,29.91
2022-08-30T12:18:57.355Z,29.61
2022-08-30T12:21:43.597Z,30.22
2022-08-30T12:24:44.919Z,29.74
2022-08-30T12:27:33.301Z,29.87
2022-08-30T12:30:08.484Z,29.63
2022-08-30T12:32:50.676Z,29.56
2022-08-30T12:35:28.587Z,30.17
2022-08-30T12:38:18.533Z,29.91
2022-08-30T12:41:00.597Z,30.06
2022-08-30T12:43:41.629Z,29.85
2022-08-30T12:46:16.210Z,29.96
2022-08-30T12:48:46.173Z,29.50
2022-08-30T12:51:41.443Z,29.98
2022-08-30T12:54:23.339Z,29.81
2022-08-30T12:57:13.972Z,29.83
2022-08-30T12:59:59.623Z,30.26
2022-08-30T13:02:54.467Z,29.85
2022-08-30T13:05:45.034Z,30.40
2022-08-30T13:08:22.942Z,30.21
2022-08-30T13:11:22.860Z,29.92
2022-08-30T13:14:43.962Z,29.82
2022-08-30T13:17:28.477Z,30.04
2022-08-30T13:20:24.965Z,29.81
2022-08-30T13:23:09.117Z,30.22
2022-08-30T13:25:40.098Z,30.19
2022-08-30T13:29:35.445Z,30.15
2022-08-30T13:32:04.130Z,29.42
2022-08-30T13:34:35.329Z,29.50
2022-08-30T13:37:04.562Z,29.50
2022-08-30T13:39:34.948Z,29.82
2022-08-30T13:44:55.243Z,30.30
2022-08-30T13:47:39.176Z,30.45
2022-08-30T13:50:08.404Z,30.44
2022-08-30T13:52:38.970Z,30.62
2022-08-30T13:55:08.748Z,30.17
2022-08-30T14:00:27.846Z,29.57
2022-08-30T14:02:57.438Z,29.64
2022-08-30T14:06:05.189Z,29.23
2022-08-30T14:08:49.018Z,29.48
2022-08-30T14:11:31.322Z,29.18
2022-08-30T14:14:17.217Z,29.31
2022-08-30T14:16:48.516Z,29.36
2022-08-30T14:19:18.532Z,29.24
2022-08-30T14:21:49.097Z,28.92
2022-08-30T14:24:20.201Z,29.35
2022-08-30T14:26:53.153Z,29.56
2022-08-30T14:29:26.354Z,30.07
2022-08-30T14:31:59.870Z,29.78
2022-08-30T14:34:29.032Z,30.11
2022-08-30T14:36:58.378Z,29.76
2022-08-30T14:39:27.496Z,30.12
2022-08-30T14:41:57.278Z,30.25
2022-08-30T14:44:26.683Z,30.20
2022-08-30T14:46:56.697Z,30.09
2022-08-30T14:49:26.690Z,30.29
2022-08-30T14:51:55.824Z,30.39
2022-08-30T14:54:28.789Z,30.40
2022-08-30T14:56:58.555Z,30.46
2022-08-30T14:59:27.659Z,30.42
2022-08-30T15:01:56.207Z,30.35
2022-08-30T15:04:25.230Z,30.37
2022-08-30T15:06:54.359Z,30.72
2022-08-30T15:09:24.943Z,30.81
2022-08-30T15:11:58.643Z,30.68
2022-08-30T15:14:29.217Z,30.81
2022-08-30T15:17:00.280Z,30.63
2022-08-30T15:19:30.195Z,30.81
2022-08-30T15:22:07.265Z,30.58
2022-08-30T15:24:37.036Z,30.95
2022-08-30T15:27:06.160Z,31.02
2022-08-30T15:29:36.174Z,30.61
2022-08-30T15:32:06.062Z,30.42
2022-08-30T15:34:35.243Z,30.76
2022-08-30T15:37:05.281Z,30.80
2022-08-30T15:39:37.077Z,30.61
2022-08-30T15:42:05.789Z,30.61
2022-08-30T15:44:34.626Z,30.46
2022-08-30T15:47:03.975Z,30.27
2022-08-30T15:49:32.763Z,30.09
2022-08-30T15:52:05.998Z,29.94
2022-08-30T15:54:36.921Z,30.35
2022-08-30T15:57:05.821Z,29.93
2022-08-30T15:59:34.525Z,29.73
2022-08-30T16:02:03.181Z,29.69
2022-08-30T16:04:31.895Z,29.69
2022-08-30T16:07:00.664Z,29.48
2022-08-30T16:09:30.115Z,29.30
2022-08-30T16:12:04.854Z,29.22
2022-08-30T16:14:34.378Z,29.04
2022-08-30T16:17:03.302Z,28.80
2022-08-30T16:19:32.187Z,28.80
2022-08-30T16:22:01.260Z,28.81
2022-08-30T16:24:29.952Z,28.79
2022-08-30T16:26:58.465Z,28.79
2022-08-30T16:29:27.116Z,28.69
2022-08-30T16:32:01.935Z,28.54
2022-08-30T16:34:31.898Z,28.52
2022-08-30T16:37:01.985Z,28.27
2022-08-30T16:39:30.598Z,28.13
2022-08-30T16:42:03.364Z,28.04
2022-08-30T16:44:36.044Z,27.90
2022-08-30T16:47:04.790Z,27.84
2022-08-30T16:49:33.382Z,27.53
2022-08-30T16:52:02.381Z,27.62
2022-08-30T16:54:32.185Z,27.57
2022-08-30T16:57:01.371Z,27.50
2022-08-30T16:59:30.058Z,27.48
2022-08-30T17:02:00.933Z,27.49
2022-08-30T17:04:29.802Z,27.20
2022-08-30T17:06:58.763Z,26.82
2022-08-30T17:09:27.422Z,26.88
2022-08-30T17:11:56.446Z,27.03
2022-08-30T17:14:28.047Z,26.73
2022-08-30T17:17:00.886Z,26.85
2022-08-30T17:19:30.527Z,26.60
2022-08-30T17:22:00.508Z,26.45
2022-08-30T17:24:29.944Z,26.64
2022-08-30T17:26:58.595Z,26.53
2022-08-30T17:29:27.797Z,26.47
2022-08-30T17:31:57.121Z,26.52
2022-08-30T17:34:28.490Z,26.36
2022-08-30T17:37:00.137Z,26.44
2022-08-30T17:39:29.937Z,26.47
2022-08-30T17:41:58.826Z,26.32
2022-08-30T17:44:34.538Z,26.54
2022-08-30T17:47:03.239Z,26.38
2022-08-30T17:49:40.922Z,26.21
2022-08-30T17:52:11.498Z,25.89
2022-08-30T17:54:41.656Z,25.98
2022-08-30T17:57:13.182Z,25.76
2022-08-30T17:59:43.322Z,25.72
2022-08-30T18:02:13.640Z,25.80
2022-08-30T18:04:44.125Z,25.86
2022-08-30T18:07:18.704Z,25.99
2022-08-30T18:09:49.299Z,25.77
2022-08-30T18:12:18.029Z,25.88
2022-08-30T18:14:47.240Z,25.66
2022-08-30T18:17:22.058Z,25.57
2022-08-30T18:19:51.023Z,25.59
2022-08-30T18:22:19.644Z,25.37
2022-08-30T18:24:49.257Z,25.44
2022-08-30T18:27:17.990Z,25.24
2022-08-30T18:29:47.297Z,25.13
2022-08-30T18:32:16.095Z,25.37
2022-08-30T18:34:44.918Z,25.25
2022-08-30T18:37:14.209Z,25.00
2022-08-30T18:39:45.637Z,24.87
2022-08-30T18:42:16.191Z,24.65
2022-08-30T18:44:45.136Z,24.59
2022-08-30T18:47:13.720Z,24.48
2022-08-30T18:49:43.019Z,24.56
2022-08-30T18:52:12.140Z,24.52
2022-08-30T18:54:52.824Z,24.65
2022-08-30T18:57:23.165Z,24.50
2022-08-30T18:59:51.788Z,24.68
2022-08-30T19:02:20.510Z,24.43
2022-08-30T19:04:52.030Z,24.44
2022-08-30T19:07:21.800Z,24.39
2022-08-30T19:09:58.899Z,24.64
2022-08-30T19:12:27.733Z,24.35
2022-08-30T19:14:57.115Z,24.26
2022-08-30T19:17:27.148Z,24.11
2022-08-30T19:19:55.856Z,24.13
2022-08-30T19:22:26.845Z,23.98
2022-08-30T19:24:57.306Z,23.82
2022-08-30T19:27:38.459Z,23.87
2022-08-30T19:30:21.589Z,23.86
2022-08-30T19:32:52.821Z,23.64
2022-08-30T19:35:22.493Z,23.66
2022-08-30T19:37:51.084Z,23.68
2022-08-30T19:40:21.402Z,23.53
2022-08-30T19:42:51.613Z,23.62
2022-08-30T19:45:23.158Z,23.57
2022-08-30T19:47:53.402Z,23.74
2022-08-30T19:50:22.982Z,23.62
2022-08-30T19:52:54.838Z,23.62
2022-08-30T19:55:31.285Z,23.65
2022-08-30T19:58:00.330Z,23.47
2022-08-30T20:00:31.444Z,23.47
2022-08-30T20:03:01.741Z,23.55
2022-08-30T20:05:32.085Z,23.25
2022-08-30T20:08:01.123Z,23.22
2022-08-30T20:10:30.175Z,23.20
2022-08-30T20:12:59.787Z,23.05
2022-08-30T20:15:31.352Z,22.94
2022-08-30T20:18:06.121Z,22.87
2022-08-30T20:20:49.464Z,22.92
2022-08-30T20:23:22.998Z,23.16
2022-08-30T20:25:54.831Z,23.22
2022-08-30T20:28:25.606Z,23.04
2022-08-30T20:30:56.107Z,22.88
2022-08-30T20:33:25.943Z,23.00
2022-08-30T20:35:54.691Z,22.89
2022-08-30T20:38:24.006Z,22.62
2022-08-30T20:40:58.677Z,22.44
2022-08-30T20:43:31.728Z,22.32
2022-08-30T20:46:17.119Z,22.39
2022-08-30T20:48:47.967Z,22.80
2022-08-30T20:51:23.196Z,22.67
2022-08-30T20:54:03.414Z,22.35
2022-08-30T20:56:32.399Z,22.18
2022-08-30T20:59:03.569Z,22.05
2022-08-30T21:01:38.563Z,22.27
2022-08-30T21:04:08.202Z,22.18
2022-08-30T21:06:37.810Z,21.91
2022-08-30T21:09:09.037Z,22.01
2022-08-30T21:11:38.503Z,22.23
2022-08-30T21:14:13.537Z,22.17
2022-08-30T21:16:42.664Z,22.32
2022-08-30T21:19:11.133Z,22.39
2022-08-30T21:21:40.163Z,22.43
2022-08-30T21:24:10.488Z,22.57
2022-08-30T21:26:41.707Z,22.60
2022-08-30T21:29:12.562Z,22.47
2022-08-30T21:31:41.331Z,22.05
2022-08-30T21:34:17.470Z,21.79
2022-08-30T21:36:47.766Z,21.94
2022-08-30T21:39:27.356Z,21.96
2022-08-30T21:41:57.530Z,21.96
2022-08-30T21:44:27.646Z,22.07
2022-08-30T21:46:56.303Z,21.97
2022-08-30T21:49:25.507Z,21.99
2022-08-30T21:51:55.530Z,21.96
2022-08-30T21:54:29.369Z,21.93
2022-08-30T21:57:02.338Z,21.78
2022-08-30T21:59:31.542Z,21.91
2022-08-30T22:02:00.119Z,21.79
2022-08-30T22:04:29.661Z,21.85
2022-08-30T22:06:59.439Z,22.08
2022-08-30T22:09:27.893Z,21.94
2022-08-30T22:11:56.682Z,21.82
2022-08-30T22:14:26.510Z,21.70
2022-08-30T22:16:55.760Z,21.51
2022-08-30T22:19:25.056Z,21.47
2022-08-30T22:22:00.664Z,21.48
2022-08-30T22:24:32.627Z,21.48
2022-08-30T22:27:05.179Z,21.46
2022-08-30T22:29:34.170Z,21.38
2022-08-30T22:32:04.269Z,21.39
2022-08-30T22:34:33.128Z,21.22
2022-08-30T22:37:01.841Z,21.08
2022-08-30T22:39:30.510Z,21.09
2022-08-30T22:41:58.964Z,21.08
2022-08-30T22:44:27.636Z,20.94
2022-08-30T22:46:56.030Z,20.87
2022-08-30T22:49:24.485Z,20.76
2022-08-30T22:51:53.181Z,20.81
2022-08-30T22:54:21.763Z,20.64
2022-08-30T22:56:50.360Z,20.38
2022-08-30T22:59:18.838Z,20.56
2022-08-30T23:01:47.690Z,20.52
2022-08-30T23:04:29.503Z,20.31
2022-08-30T23:06:58.102Z,20.34
2022-08-30T23:09:29.088Z,20.47
2022-08-30T23:11:57.818Z,20.59
2022-08-30T23:14:26.758Z,20.17
2022-08-30T23:16:55.701Z,20.12
2022-08-30T23:19:24.431Z,19.97
2022-08-30T23:21:52.971Z,20.45
2022-08-30T23:24:40.781Z,20.71
2022-08-30T23:27:33.198Z,20.45
2022-08-30T23:30:20.177Z,20.50
2022-08-30T23:33:06.941Z,20.25
2022-08-30T23:35:56.479Z,20.43
2022-08-30T23:38:43.600Z,20.07
2022-08-30T23:41:34.133Z,19.97
2022-08-30T23:44:22.155Z,20.37
2022-08-30T23:47:09.493Z,20.07
2022-08-30T23:49:56.782Z,20.08
2022-08-30T23:52:43.767Z,19.99
2022-08-30T23:55:31.620Z,20.11
2022-08-30T23:58:18.631Z,20.02
